Time;durP1;ratioP1;P1;durP2;ratioP2;P2;SDS_P1;SDS_P2;PMS_P1;PMS_P2;Temp;Humidity;BMP_temperature;BMP_pressure;BME280_temperature;BME280_humidity;BME280_pressure;Samples;Min_cycle;Max_cycle;Signal;HPM_P1;HPM_P2
2022/05/30 00:00:33;;;;;;;12.10;10.80;;;;;;;18.75;50.51;100256.11;117257;1186;22905;-50
2022/05/30 00:03:00;;;;;;;16.20;11.00;;;;;;;18.73;50.52;100245.89;117305;1183;24151;-51
2022/05/30 00:05:30;;;;;;;16.10;11.20;;;;;;;18.72;50.53;100246.81;117178;1186;21850;-50
2022/05/30 00:07:58;;;;;;;14.80;11.30;;;;;;;18.70;50.56;100238.02;117277;1186;23537;-55
2022/05/30 00:10:25;;;;;;;14.40;12.20;;;;;;;18.68;50.59;100231.02;117353;1183;22905;-50
2022/05/30 00:12:53;;;;;;;17.20;11.20;;;;;;;18.68;50.60;100226.74;117334;1186;22992;-50
2022/05/30 00:15:21;;;;;;;14.40;11.00;;;;;;;18.69;50.65;100218.54;117357;1184;22976;-55
2022/05/30 00:17:48;;;;;;;15.80;11.60;;;;;;;18.69;50.64;100214.80;117335;1186;21900;-55
2022/05/30 00:20:15;;;;;;;14.60;12.30;;;;;;;18.68;50.73;100207.91;117173;1188;22030;-56
2022/05/30 00:22:42;;;;;;;14.20;11.90;;;;;;;18.68;50.60;100205.08;117302;1183;23544;-55
2022/05/30 00:25:09;;;;;;;14.20;11.40;;;;;;;18.66;50.62;100203.41;117292;1180;23625;-49
2022/05/30 00:27:36;;;;;;;15.40;11.90;;;;;;;18.63;50.69;100202.09;117345;1185;22988;-55
2022/05/30 00:30:03;;;;;;;18.30;13.00;;;;;;;18.62;50.71;100197.39;117412;1182;23557;-51
2022/05/30 00:32:32;;;;;;;13.80;11.80;;;;;;;18.58;50.86;100185.48;117299;1185;21853;-56
2022/05/30 00:34:59;;;;;;;14.20;11.50;;;;;;;18.55;50.84;100177.61;117312;1186;23539;-50
2022/05/30 00:37:27;;;;;;;18.80;12.40;;;;;;;18.54;50.86;100167.39;117407;1182;22982;-50
2022/05/30 00:39:54;;;;;;;17.40;13.20;;;;;;;18.46;51.10;100169.35;117275;1183;22918;-55
2022/05/30 00:42:23;;;;;;;17.00;12.00;;;;;;;18.44;51.23;100171.21;117303;1183;23580;-50
2022/05/30 00:44:50;;;;;;;14.60;12.10;;;;;;;18.54;51.05;100171.27;117370;1180;22912;-56
2022/05/30 00:47:18;;;;;;;14.80;12.30;;;;;;;18.57;51.09;100173.27;117353;1185;23465;-51
2022/05/30 00:49:46;;;;;;;15.90;11.40;;;;;;;18.60;51.13;100177.23;117294;1186;21855;-55
2022/05/30 00:52:36;;;;;;;15.70;11.40;;;;;;;18.65;51.07;100178.23;117333;1186;21990;-50
2022/05/30 00:55:12;;;;;;;18.10;11.60;;;;;;;18.69;51.08;100168.95;117466;1185;22877;-56
2022/05/30 00:57:39;;;;;;;15.20;11.50;;;;;;;18.72;51.11;100163.80;117451;1182;23657;-50
2022/05/30 01:00:13;;;;;;;16.10;11.80;;;;;;;18.72;51.16;100159.76;117370;1186;21966;-56
2022/05/30 01:02:40;;;;;;;11.80;10.50;;;;;;;18.71;51.15;100161.38;117400;1183;22816;-50
2022/05/30 01:07:55;;;;;;;11.80;10.60;;;;;;;18.73;51.34;100168.40;117221;1183;23553;-51
2022/05/30 01:10:23;;;;;;;14.90;10.30;;;;;;;18.72;51.35;100166.64;117242;1180;22900;-56
2022/05/30 01:12:52;;;;;;;18.10;10.90;;;;;;;18.77;51.37;100166.61;117358;1186;23541;-50
2022/05/30 01:15:29;;;;;;;17.50;11.60;;;;;;;18.82;51.30;100170.96;117401;1185;21850;-51
2022/05/30 01:18:40;;;;;;;12.30;10.80;;;;;;;18.85;51.33;100176.13;117309;1185;22153;-51
2022/05/30 01:21:41;;;;;;;12.90;9.40;;;;;;;18.86;51.31;100174.14;117355;1186;21925;-57
2022/05/30 01:24:45;;;;;;;13.80;10.50;;;;;;;18.86;51.38;100170.23;117296;1182;23632;-56
2022/05/30 01:27:28;;;;;;;12.60;10.40;;;;;;;18.87;51.36;100166.11;117260;1189;21856;-56
2022/05/30 01:29:58;;;;;;;13.60;9.90;;;;;;;18.85;51.35;100162.98;117298;1183;23668;-51
2022/05/30 01:32:25;;;;;;;14.20;10.70;;;;;;;18.83;51.28;100155.44;117471;1185;23454;-56
2022/05/30 01:34:52;;;;;;;14.30;10.10;;;;;;;18.81;51.30;100156.61;117407;1182;24149;-51
2022/05/30 01:37:19;;;;;;;13.40;10.30;;;;;;;18.79;51.21;100157.60;117318;1183;22986;-56
2022/05/30 01:39:46;;;;;;;16.00;9.90;;;;;;;18.77;51.29;100153.48;117278;1183;21856;-55
2022/05/30 01:42:13;;;;;;;16.90;10.10;;;;;;;18.74;51.25;100144.89;117431;1185;22912;-56
2022/05/30 01:44:40;;;;;;;14.60;9.80;;;;;;;18.73;51.25;100143.70;117412;1186;22905;-51
2022/05/30 01:47:07;;;;;;;14.70;10.30;;;;;;;18.71;51.27;100143.41;117299;1183;22889;-55
2022/05/30 01:49:34;;;;;;;12.70;10.30;;;;;;;18.71;51.35;100152.84;117394;1182;22912;-56
2022/05/30 01:52:02;;;;;;;13.40;10.40;;;;;;;18.70;51.39;100156.27;117352;1183;22919;-51
2022/05/30 01:54:28;;;;;;;13.40;9.70;;;;;;;18.70;51.36;100162.32;117285;1185;22094;-56
2022/05/30 01:56:55;;;;;;;11.00;9.90;;;;;;;18.68;51.32;100166.17;117217;1183;22610;-53
2022/05/30 01:59:22;;;;;;;14.30;10.10;;;;;;;18.65;51.36;100170.55;117442;1180;22985;-51
2022/05/30 02:01:49;;;;;;;14.40;11.30;;;;;;;18.63;51.37;100173.70;117362;1183;23644;-51
2022/05/30 02:04:16;;;;;;;12.80;10.80;;;;;;;18.61;51.39;100175.05;117284;1186;21861;-51
2022/05/30 02:06:43;;;;;;;15.70;11.10;;;;;;;18.65;51.34;100180.85;117369;1185;22982;-51
2022/05/30 02:09:10;;;;;;;13.30;10.70;;;;;;;18.68;51.31;100181.09;117260;1181;23614;-50
2022/05/30 02:11:37;;;;;;;12.60;11.20;;;;;;;18.68;51.35;100189.08;117307;1183;22980;-56
2022/05/30 02:14:04;;;;;;;16.80;11.60;;;;;;;18.68;51.26;100192.82;117333;1186;23996;-56
2022/05/30 02:19:18;;;;;;;16.50;12.10;;;;;;;18.69;51.46;100200.40;117213;1186;21997;-56
2022/05/30 02:21:45;;;;;;;17.90;12.30;;;;;;;18.71;51.40;100204.58;117201;1186;22918;-50
2022/05/30 02:24:12;;;;;;;15.50;12.30;;;;;;;18.73;51.49;100209.42;117678;1182;23459;-51
2022/05/30 02:26:39;;;;;;;16.40;13.30;;;;;;;18.76;51.48;100208.61;117185;1180;22896;-51
2022/05/30 02:29:06;;;;;;;18.20;13.50;;;;;;;18.76;51.47;100196.86;117271;1185;22918;-56
2022/05/30 02:31:33;;;;;;;19.10;13.30;;;;;;;18.77;51.55;100189.34;117162;1182;24181;-51
2022/05/30 02:36:46;;;;;;;15.90;14.20;;;;;;;18.79;51.55;100190.12;117170;1186;23545;-56
2022/05/30 02:39:18;;;;;;;18.70;15.90;;;;;;;18.80;51.62;100191.70;117211;1185;23438;-56
2022/05/30 02:41:45;;;;;;;19.00;15.30;;;;;;;18.84;51.38;100185.11;117136;1182;22893;-57
2022/05/30 02:44:13;;;;;;;21.40;16.80;;;;;;;18.80;51.48;100188.48;117279;1185;21894;-57
2022/05/30 02:46:40;;;;;;;19.00;16.30;;;;;;;18.78;51.45;100184.84;117212;1183;23012;-57
2022/05/30 02:49:08;;;;;;;20.00;16.20;;;;;;;18.80;51.57;100184.20;117150;1186;22617;-57
2022/05/30 02:51:35;;;;;;;18.50;16.10;;;;;;;18.78;51.50;100186.64;117256;1183;23692;-56
2022/05/30 02:54:02;;;;;;;19.90;17.80;;;;;;;18.75;51.62;100183.22;117167;1186;21843;-56
2022/05/30 02:56:28;;;;;;;20.70;16.60;;;;;;;18.76;51.62;100180.19;117327;1183;21974;-57
2022/05/30 02:58:59;;;;;;;20.50;15.40;;;;;;;18.77;51.64;100176.19;117146;1185;21842;-56
2022/05/30 03:01:26;;;;;;;17.80;15.70;;;;;;;18.79;51.67;100177.33;117166;1186;23987;-51
2022/05/30 03:03:54;;;;;;;18.50;15.00;;;;;;;18.82;51.66;100184.13;117282;1186;23222;-56
2022/05/30 03:06:21;;;;;;;18.00;15.10;;;;;;;18.84;51.72;100184.05;117176;1186;22989;-57
2022/05/30 03:08:48;;;;;;;20.60;14.10;;;;;;;18.86;51.66;100187.67;117310;1187;23445;-51
2022/05/30 03:11:15;;;;;;;21.50;14.50;;;;;;;18.88;51.78;100182.23;117230;1185;21884;-51
2022/05/30 03:13:42;;;;;;;18.20;14.30;;;;;;;18.90;51.72;100176.29;117280;1183;23655;-56
2022/05/30 03:16:09;;;;;;;15.70;13.30;;;;;;;18.92;51.69;100167.63;117261;1183;22993;-56
2022/05/30 03:18:36;;;;;;;14.50;12.60;;;;;;;18.94;51.72;100168.23;117351;1185;22202;-56
2022/05/30 03:21:05;;;;;;;14.10;12.60;;;;;;;19.01;51.65;100170.24;117280;1186;22979;-51
2022/05/30 03:23:32;;;;;;;18.00;13.00;;;;;;;19.12;51.54;100168.25;117346;1185;21868;-51
2022/05/30 03:25:59;;;;;;;20.20;13.10;;;;;;;19.16;51.47;100161.11;117384;1183;22906;-51
2022/05/30 03:28:26;;;;;;;16.40;12.30;;;;;;;19.16;51.53;100158.10;117251;1183;24161;-57
2022/05/30 03:30:53;;;;;;;14.80;12.30;;;;;;;19.09;51.73;100153.27;117313;1183;21899;-57
2022/05/30 03:33:20;;;;;;;18.00;13.10;;;;;;;19.09;51.92;100147.77;117102;1188;23636;-56
2022/05/30 03:35:47;;;;;;;15.80;12.10;;;;;;;19.14;51.91;100138.84;117271;1183;22906;-57
2022/05/30 03:38:14;;;;;;;15.80;12.90;;;;;;;19.26;51.72;100130.17;117414;1188;21934;-51
2022/05/30 03:40:40;;;;;;;20.30;12.60;;;;;;;19.23;51.88;100130.50;117414;1182;23551;-51
2022/05/30 03:43:09;;;;;;;14.30;12.20;;;;;;;19.26;52.01;100125.55;117348;1186;22986;-57
2022/05/30 03:45:36;;;;;;;15.40;13.00;;;;;;;19.30;51.95;100114.14;117404;1183;23455;-51
2022/05/30 03:48:04;;;;;;;14.80;12.20;;;;;;;19.32;52.01;100100.85;117454;1183;22949;-51
2022/05/30 03:50:31;;;;;;;15.00;12.30;;;;;;;19.37;52.05;100100.64;117359;1186;21861;-51
2022/05/30 03:53:04;;;;;;;14.50;11.70;;;;;;;19.39;52.11;100092.66;117122;1189;21970;-52
2022/05/30 03:55:36;;;;;;;15.60;11.50;;;;;;;19.44;52.05;100084.73;117400;1185;21858;-57
2022/05/30 03:58:04;;;;;;;14.90;12.70;;;;;;;19.50;52.12;100089.23;117427;1183;23598;-56
2022/05/30 04:00:31;;;;;;;15.50;13.40;;;;;;;19.59;51.99;100084.67;117328;1185;21833;-52
2022/05/30 04:02:59;;;;;;;17.20;13.20;;;;;;;19.74;51.91;100075.64;117321;1186;24215;-52
2022/05/30 04:05:26;;;;;;;15.10;12.60;;;;;;;19.86;51.91;100069.11;117423;1186;22976;-51
2022/05/30 04:07:53;;;;;;;16.50;12.80;;;;;;;19.94;52.01;100065.17;117108;1188;23440;-57
2022/05/30 04:10:21;;;;;;;13.70;12.00;;;;;;;19.90;52.33;100061.77;117205;1183;23544;-57
2022/05/30 04:12:48;;;;;;;16.30;12.00;;;;;;;20.06;52.24;100063.40;117473;1186;22712;-52
2022/05/30 04:15:18;;;;;;;14.50;11.80;;;;;;;20.19;51.99;100059.25;117376;1183;23011;-52
2022/05/30 04:17:47;;;;;;;15.10;11.70;;;;;;;20.26;51.99;100058.21;117291;1185;21851;-57
2022/05/30 04:20:14;;;;;;;12.50;10.30;;;;;;;20.29;52.02;100054.80;117314;1185;22967;-53
2022/05/30 04:22:44;;;;;;;13.90;10.20;;;;;;;20.31;51.98;100055.95;117269;1183;21862;-57
2022/05/30 04:25:11;;;;;;;17.20;11.20;;;;;;;20.35;51.91;100045.73;117310;1185;22918;-52
2022/05/30 04:27:38;;;;;;;11.80;10.30;;;;;;;20.40;51.83;100045.63;117118;1186;23571;-53
2022/05/30 04:30:07;;;;;;;11.20;9.90;;;;;;;20.41;51.76;100045.88;117337;1186;22950;-57
2022/05/30 04:32:35;;;;;;;12.90;9.70;;;;;;;20.43;51.82;100050.77;117424;1186;23614;-56
2022/05/30 04:35:04;;;;;;;10.50;9.30;;;;;;;20.45;51.75;100046.20;117323;1186;24005;-57
2022/05/30 04:37:31;;;;;;;11.10;9.20;;;;;;;20.46;51.78;100027.60;117239;1186;21937;-53
2022/05/30 04:39:57;;;;;;;13.00;9.90;;;;;;;20.48;51.71;100018.77;117235;1186;23542;-57
2022/05/30 04:42:25;;;;;;;13.10;9.80;;;;;;;20.51;51.88;100017.86;117407;1185;22799;-53
2022/05/30 04:44:52;;;;;;;12.50;9.90;;;;;;;20.55;51.83;100016.73;117189;1186;21895;-57
2022/05/30 04:47:19;;;;;;;10.60;9.50;;;;;;;20.56;51.85;100008.30;117118;1186;21854;-53
2022/05/30 04:49:47;;;;;;;12.10;9.10;;;;;;;20.58;51.95;100000.36;117076;1183;22810;-56
2022/05/30 04:52:15;;;;;;;12.10;9.40;;;;;;;20.61;51.95;100001.40;117180;1186;22177;-57
2022/05/30 04:54:43;;;;;;;11.20;9.60;;;;;;;20.65;51.92;99996.20;117104;1188;22625;-57
2022/05/30 04:57:10;;;;;;;10.80;9.60;;;;;;;20.70;51.96;99992.85;117248;1188;21856;-57
2022/05/30 04:59:40;;;;;;;11.30;9.80;;;;;;;20.75;52.01;99994.17;117328;1182;23557;-55
2022/05/30 05:02:09;;;;;;;20.90;15.20;;;;;;;20.78;51.94;100004.33;117437;1183;21896;-53
2022/05/30 05:04:39;;;;;;;13.00;9.80;;;;;;;20.83;51.97;100022.77;117401;1184;21897;-57
2022/05/30 05:07:06;;;;;;;11.10;8.80;;;;;;;20.84;51.91;100055.88;117095;1183;22172;-54
2022/05/30 05:09:47;;;;;;;11.20;8.80;;;;;;;20.84;51.95;100076.60;117156;1183;23589;-54
2022/05/30 05:12:14;;;;;;;13.60;8.80;;;;;;;20.79;51.87;100072.20;117117;1182;21980;-55
2022/05/30 05:14:41;;;;;;;12.10;7.80;;;;;;;20.77;51.89;100080.71;117199;1182;23271;-58
2022/05/30 05:17:08;;;;;;;13.50;9.30;;;;;;;20.77;51.92;100094.98;117047;1185;22381;-58
2022/05/30 05:19:40;;;;;;;15.10;9.00;;;;;;;20.79;51.95;100102.54;117234;1186;21892;-57
2022/05/30 05:22:07;;;;;;;13.10;8.70;;;;;;;20.82;51.97;100114.14;117184;1186;22699;-58
2022/05/30 05:24:36;;;;;;;9.90;8.80;;;;;;;20.84;51.99;100129.86;116969;1186;21943;-58
2022/05/30 05:27:03;;;;;;;14.30;8.70;;;;;;;20.84;51.98;100149.70;117234;1182;21862;-58
2022/05/30 05:29:30;;;;;;;10.30;7.60;;;;;;;20.80;51.94;100151.86;117134;1186;22811;-58
2022/05/30 05:31:59;;;;;;;9.60;7.90;;;;;;;20.79;52.02;100142.45;117230;1186;22982;-58
2022/05/30 05:34:26;;;;;;;12.80;7.60;;;;;;;20.82;52.12;100129.84;117308;1186;21902;-54
2022/05/30 05:36:53;;;;;;;11.40;7.70;;;;;;;20.86;52.13;100130.11;117088;1183;22914;-55
2022/05/30 05:39:20;;;;;;;10.20;7.80;;;;;;;20.91;52.16;100133.20;117121;1182;22969;-53
2022/05/30 05:41:47;;;;;;;8.80;6.50;;;;;;;20.94;52.15;100150.84;117279;1182;23689;-56
2022/05/30 05:44:15;;;;;;;9.40;7.20;;;;;;;20.98;52.18;100156.00;117276;1182;22983;-53
2022/05/30 05:46:42;;;;;;;12.90;7.60;;;;;;;21.04;52.30;100147.77;117332;1183;22988;-53
2022/05/30 05:49:10;;;;;;;10.60;7.80;;;;;;;21.19;52.43;100149.20;117269;1182;22902;-53
2022/05/30 05:51:37;;;;;;;12.60;7.60;;;;;;;21.39;52.47;100144.26;117185;1182;22723;-54
2022/05/30 05:54:05;;;;;;;11.50;7.30;;;;;;;21.55;52.52;100138.67;117311;1186;21845;-54
2022/05/30 05:56:32;;;;;;;7.80;6.30;;;;;;;21.70;52.59;100139.72;117469;1183;22624;-52
2022/05/30 05:58:59;;;;;;;12.40;9.00;;;;;;;21.79;52.39;100145.91;117196;1182;22879;-58
2022/05/30 06:01:31;;;;;;;14.70;7.90;;;;;;;21.86;52.28;100152.67;117126;1182;21940;-54
2022/05/30 06:04:00;;;;;;;11.40;6.80;;;;;;;21.89;52.31;100162.79;117206;1186;21849;-57
2022/05/30 06:06:27;;;;;;;7.70;5.90;;;;;;;21.90;52.23;100167.95;117149;1182;22930;-57
2022/05/30 06:09:01;;;;;;;8.90;5.90;;;;;;;21.86;52.05;100173.69;116949;1186;22627;-57
2022/05/30 06:11:28;;;;;;;8.60;6.00;;;;;;;21.82;52.01;100184.69;117262;1183;21862;-58
2022/05/30 06:13:55;;;;;;;8.70;5.60;;;;;;;21.80;52.11;100193.73;117170;1183;23556;-57
2022/05/30 06:16:27;;;;;;;9.80;5.00;;;;;;;21.80;52.14;100201.74;117101;1186;21853;-58
2022/05/30 06:18:55;;;;;;;10.20;5.70;;;;;;;21.83;52.11;100211.20;117089;1183;23455;-58
2022/05/30 06:21:23;;;;;;;7.70;5.10;;;;;;;21.86;52.03;100216.95;117293;1183;22921;-57
2022/05/30 06:23:51;;;;;;;7.50;4.90;;;;;;;21.87;52.05;100225.27;117306;1186;22821;-54
2022/05/30 06:26:18;;;;;;;7.80;5.20;;;;;;;21.89;52.09;100230.34;117335;1182;23640;-54
2022/05/30 06:28:46;;;;;;;7.80;5.30;;;;;;;21.91;52.11;100231.60;117451;1186;21853;-55
2022/05/30 06:31:21;;;;;;;8.80;5.30;;;;;;;21.94;52.12;100234.67;117304;1183;23528;-54
2022/05/30 06:33:49;;;;;;;7.70;5.50;;;;;;;21.99;52.18;100241.70;117305;1189;21840;-53
2022/05/30 06:36:17;;;;;;;7.40;5.60;;;;;;;22.06;52.23;100234.05;117313;1182;21908;-54
2022/05/30 06:38:46;;;;;;;9.60;4.70;;;;;;;22.15;52.31;100226.71;117331;1186;23536;-54
2022/05/30 06:41:21;;;;;;;8.50;4.80;;;;;;;22.27;52.46;100223.50;117161;1183;23577;-54
2022/05/30 06:43:57;;;;;;;11.10;5.10;;;;;;;22.45;52.64;100221.09;117144;1186;21860;-57
2022/05/30 06:46:24;;;;;;;8.80;4.70;;;;;;;22.66;52.54;100212.77;117285;1182;23637;-54
2022/05/30 06:48:56;;;;;;;7.70;4.40;;;;;;;22.81;52.26;100200.19;117072;1186;23538;-57
2022/05/30 06:51:25;;;;;;;7.50;4.10;;;;;;;22.92;52.29;100186.05;117000;1183;22901;-58
2022/05/30 06:53:52;;;;;;;5.40;3.90;;;;;;;23.05;52.31;100179.42;117133;1183;23615;-54
2022/05/30 06:56:21;;;;;;;5.90;4.00;;;;;;;23.15;52.45;100176.11;116933;1188;22980;-54
2022/05/30 06:58:52;;;;;;;5.40;4.10;;;;;;;23.11;52.45;100176.00;116917;1187;23755;-57
2022/05/30 07:01:24;;;;;;;7.00;4.90;;;;;;;23.15;52.54;100185.77;117178;1182;23585;-57
2022/05/30 07:03:51;;;;;;;9.90;3.80;;;;;;;23.20;52.54;100192.59;117024;1187;23448;-55
2022/05/30 07:06:20;;;;;;;5.50;3.90;;;;;;;23.16;52.26;100203.02;117290;1182;22639;-58
2022/05/30 07:08:47;;;;;;;6.90;3.90;;;;;;;23.09;51.98;100207.28;117302;1186;23467;-56
2022/05/30 07:11:15;;;;;;;8.20;4.20;;;;;;;22.98;51.95;100209.42;117212;1183;22917;-56
2022/05/30 07:13:43;;;;;;;8.70;4.40;;;;;;;22.90;51.98;100210.88;117397;1183;22969;-57
2022/05/30 07:16:11;;;;;;;8.00;4.90;;;;;;;22.87;51.98;100211.06;117342;1186;21904;-57
2022/05/30 07:18:42;;;;;;;9.90;4.20;;;;;;;22.84;52.03;100206.05;117403;1186;22090;-54
2022/05/30 07:21:10;;;;;;;8.30;4.70;;;;;;;22.82;52.00;100203.20;117305;1186;21846;-57
2022/05/30 07:23:37;;;;;;;7.30;4.90;;;;;;;22.77;51.99;100205.81;117356;1186;21878;-54
2022/05/30 07:26:09;;;;;;;7.90;3.90;;;;;;;22.73;51.99;100202.30;117345;1184;21851;-55
2022/05/30 07:28:36;;;;;;;9.20;4.50;;;;;;;22.73;52.02;100202.13;117187;1188;22953;-54
2022/05/30 07:31:11;;;;;;;10.00;4.40;;;;;;;22.73;51.96;100203.56;117323;1185;21862;-54
2022/05/30 07:33:39;;;;;;;5.50;4.40;;;;;;;22.69;52.00;100198.83;117111;1182;22113;-56
2022/05/30 07:36:14;;;;;;;7.50;4.70;;;;;;;22.61;52.16;100189.90;117380;1182;21999;-57
2022/05/30 07:38:42;;;;;;;8.60;5.00;;;;;;;22.61;52.04;100180.59;117186;1185;22105;-53
2022/05/30 07:41:09;;;;;;;9.90;4.80;;;;;;;22.65;51.96;100179.81;117405;1182;23460;-57
2022/05/30 07:43:36;;;;;;;7.40;4.70;;;;;;;22.69;51.99;100185.63;117322;1182;22052;-55
2022/05/30 07:46:05;;;;;;;7.10;5.40;;;;;;;22.71;52.05;100192.95;117290;1186;23447;-54
2022/05/30 07:48:32;;;;;;;6.30;5.20;;;;;;;22.71;51.89;100194.39;117312;1185;21854;-54
2022/05/30 07:50:59;;;;;;;5.30;4.40;;;;;;;22.71;52.05;100184.21;116987;1187;21881;-56
2022/05/30 07:53:26;;;;;;;6.70;4.70;;;;;;;22.66;52.07;100206.02;116916;1186;24302;-54
2022/05/30 07:55:53;;;;;;;10.90;4.60;;;;;;;22.55;51.86;100213.70;117136;1186;22991;-57
2022/05/30 07:58:20;;;;;;;8.40;4.00;;;;;;;22.44;51.87;100218.09;117188;1182;23559;-57
2022/05/30 08:00:52;;;;;;;6.70;4.10;;;;;;;22.35;51.92;100232.48;116985;1185;23548;-54
2022/05/30 08:03:19;;;;;;;6.30;4.40;;;;;;;22.27;51.93;100225.46;116962;1183;22991;-54
2022/05/30 08:05:47;;;;;;;7.30;5.00;;;;;;;22.18;51.93;100228.34;116981;1188;23544;-54
2022/05/30 08:08:15;;;;;;;7.70;4.90;;;;;;;22.11;52.03;100236.78;117004;1182;21859;-54
2022/05/30 08:10:42;;;;;;;7.80;4.80;;;;;;;22.11;52.11;100235.92;116946;1186;21864;-54
2022/05/30 08:13:09;;;;;;;7.40;4.80;;;;;;;22.10;52.26;100231.91;116993;1183;21854;-57
2022/05/30 08:15:36;;;;;;;6.70;5.00;;;;;;;22.12;52.25;100228.54;116984;1188;21855;-54
2022/05/30 08:18:03;;;;;;;8.50;5.10;;;;;;;22.17;52.49;100211.24;117046;1187;21976;-54
2022/05/30 08:20:31;;;;;;;6.30;5.00;;;;;;;22.28;52.63;100193.58;117086;1183;21869;-57
2022/05/30 08:22:58;;;;;;;7.90;4.50;;;;;;;22.43;52.78;100200.34;117220;1187;21852;-57
2022/05/30 08:25:28;;;;;;;7.60;4.90;;;;;;;22.60;52.43;100213.88;117141;1182;21872;-57
2022/05/30 08:27:56;;;;;;;7.30;4.40;;;;;;;22.68;52.41;100210.73;117118;1185;21861;-58
2022/05/30 08:30:24;;;;;;;5.90;4.10;;;;;;;22.72;52.34;100216.53;117074;1185;21855;-53
2022/05/30 08:32:50;;;;;;;6.50;4.60;;;;;;;22.71;52.31;100219.64;117131;1186;23387;-58
2022/05/30 08:35:18;;;;;;;6.40;4.50;;;;;;;22.75;52.28;100210.41;117095;1182;21892;-54
2022/05/30 08:37:46;;;;;;;5.90;4.30;;;;;;;22.77;52.29;100208.66;117121;1187;21842;-54
2022/05/30 08:43:20;;;;;;;8.00;4.70;;;;;;;22.86;52.38;100177.31;116969;1187;21862;-54
2022/05/30 08:45:47;;;;;;;9.30;4.70;;;;;;;22.92;52.17;100162.25;117271;1185;24159;-54
2022/05/30 08:48:17;;;;;;;14.00;5.00;;;;;;;22.93;52.06;100135.03;117231;1183;21966;-53
2022/05/30 08:51:03;;;;;;;6.10;4.30;;;;;;;22.88;52.20;100147.14;117374;1180;21858;-52
2022/05/30 08:53:38;;;;;;;7.70;4.70;;;;;;;22.82;52.14;100162.21;117308;1182;21852;-53
2022/05/30 08:56:34;;;;;;;6.00;3.90;;;;;;;22.73;52.11;100174.58;117272;1183;23553;-53
2022/05/30 08:59:08;;;;;;;7.00;4.40;;;;;;;22.69;52.23;100179.34;117345;1183;22924;-53
2022/05/30 09:01:39;;;;;;;12.80;5.40;;;;;;;22.65;52.30;100188.00;117196;1185;21836;-57
2022/05/30 09:04:31;;;;;;;6.60;4.90;;;;;;;22.62;52.31;100198.38;117303;1186;23536;-53
2022/05/30 09:07:10;;;;;;;5.80;4.10;;;;;;;22.61;52.39;100199.20;117496;1186;21849;-54
2022/05/30 09:09:56;;;;;;;9.20;5.30;;;;;;;22.63;52.48;100199.77;117221;1185;21846;-54
2022/05/30 09:12:48;;;;;;;5.80;4.20;;;;;;;22.67;52.47;100196.45;117252;1182;21864;-57
2022/05/30 09:15:18;;;;;;;7.10;4.40;;;;;;;22.70;52.36;100193.55;117201;1188;21864;-54
2022/05/30 09:17:49;;;;;;;6.60;3.90;;;;;;;22.67;52.30;100189.68;117323;1183;23624;-54
2022/05/30 09:20:20;;;;;;;6.00;4.20;;;;;;;22.61;52.34;100188.84;117297;1185;22915;-56
2022/05/30 09:22:48;;;;;;;8.20;4.70;;;;;;;22.54;52.23;100188.39;117346;1186;23439;-54
2022/05/30 09:28:03;;;;;;;6.30;4.50;;;;;;;22.44;52.14;100186.15;117303;1183;23575;-57
2022/05/30 09:30:41;;;;;;;8.30;4.20;;;;;;;22.39;52.17;100189.68;117355;1183;22011;-55
2022/05/30 09:33:28;;;;;;;7.30;3.90;;;;;;;22.32;52.13;100187.80;117281;1182;21869;-53
2022/05/30 09:36:19;;;;;;;6.20;4.10;;;;;;;22.24;52.08;100190.96;117254;1185;21832;-54
2022/05/30 09:39:14;;;;;;;6.80;3.90;;;;;;;22.16;52.00;100197.19;117269;1186;22509;-54
2022/05/30 09:41:41;;;;;;;8.30;4.10;;;;;;;22.05;51.96;100195.38;117436;1183;22122;-56
2022/05/30 09:44:17;;;;;;;6.20;4.40;;;;;;;21.97;52.06;100195.02;117305;1185;21892;-57
2022/05/30 09:46:51;;;;;;;7.00;4.40;;;;;;;21.88;51.99;100192.88;117276;1180;23002;-56
2022/05/30 09:49:26;;;;;;;8.10;3.90;;;;;;;21.81;52.04;100189.40;117203;1185;23636;-56
2022/05/30 09:52:00;;;;;;;5.70;3.70;;;;;;;21.75;51.90;100189.05;117401;1186;22959;-54
2022/05/30 09:54:28;;;;;;;8.20;4.20;;;;;;;21.70;52.03;100176.33;117324;1185;21861;-53
2022/05/30 09:57:13;;;;;;;6.10;4.10;;;;;;;21.66;51.95;100160.66;117293;1183;23542;-56
2022/05/30 09:59:42;;;;;;;6.60;4.00;;;;;;;21.66;52.04;100154.77;117160;1186;21858;-57
2022/05/30 10:02:21;;;;;;;6.90;3.90;;;;;;;21.65;52.04;100148.07;117299;1186;22828;-56
2022/05/30 10:04:57;;;;;;;7.80;4.30;;;;;;;21.64;52.11;100125.78;117294;1186;23470;-51
2022/05/30 10:07:24;;;;;;;7.70;3.80;;;;;;;21.62;52.11;100119.85;117350;1185;22916;-51
2022/05/30 10:09:55;;;;;;;7.80;4.00;;;;;;;21.58;52.14;100123.09;117319;1185;21853;-52
2022/05/30 10:12:29;;;;;;;9.90;4.30;;;;;;;21.53;52.10;100133.37;117298;1183;22620;-55
2022/05/30 10:14:56;;;;;;;7.80;4.40;;;;;;;21.50;52.18;100133.42;117258;1182;21902;-54
2022/05/30 10:17:35;;;;;;;7.70;4.20;;;;;;;21.48;52.21;100134.41;117242;1185;21914;-50
2022/05/30 10:20:08;;;;;;;10.20;5.40;;;;;;;21.47;52.20;100118.77;117361;1185;21853;-54
2022/05/30 10:28:54;;;;;;;10.70;4.90;;;;;;;21.26;52.11;100069.20;117164;1187;23454;-52
2022/05/30 10:32:00;;;;;;;7.40;4.40;;;;;;;21.18;52.10;100060.96;117433;1186;21883;-55
2022/05/30 10:35:04;;;;;;;9.10;4.30;;;;;;;21.12;52.30;100035.45;117032;1186;22946;-55
2022/05/30 10:37:51;;;;;;;10.80;5.10;;;;;;;21.17;52.58;100031.40;117088;1182;22096;-51
2022/05/30 10:40:29;;;;;;;5.90;4.70;;;;;;;21.31;52.82;100051.20;117009;1186;23560;-52
2022/05/30 10:43:04;;;;;;;6.40;4.80;;;;;;;21.53;53.10;100065.91;117361;1184;23432;-57
2022/05/30 10:45:40;;;;;;;7.70;5.00;;;;;;;21.81;53.37;100062.04;117127;1183;22927;-53
2022/05/30 10:48:07;;;;;;;8.30;5.00;;;;;;;22.15;53.64;100062.34;117161;1185;21852;-55
2022/05/30 10:50:43;;;;;;;7.30;5.30;;;;;;;22.50;53.45;100059.67;117383;1183;23580;-51
2022/05/30 10:53:21;;;;;;;7.10;4.60;;;;;;;22.77;53.39;100059.55;117317;1183;22156;-55
2022/05/30 10:55:48;;;;;;;6.40;4.90;;;;;;;22.92;53.29;100059.05;117193;1182;23637;-56
2022/05/30 10:58:26;;;;;;;7.80;4.70;;;;;;;23.04;53.22;100063.05;117317;1184;21855;-51
2022/05/30 11:00:57;;;;;;;6.60;4.00;;;;;;;23.18;53.18;100064.91;117245;1183;22993;-56
2022/05/30 11:03:43;;;;;;;11.00;4.50;;;;;;;23.37;53.56;100066.89;117100;1183;21895;-53
2022/05/30 11:06:23;;;;;;;7.60;5.00;;;;;;;23.64;53.85;100067.44;117222;1185;21851;-56
2022/05/30 11:09:12;;;;;;;8.60;4.50;;;;;;;24.02;53.91;100074.59;117297;1182;21850;-57
2022/05/30 11:11:50;;;;;;;6.90;4.50;;;;;;;24.41;54.14;100079.27;117189;1185;22882;-57
2022/05/30 11:14:35;;;;;;;7.70;4.00;;;;;;;24.79;54.03;100071.95;119338;1185;21785;-57
2022/05/30 11:17:08;;;;;;;6.00;3.50;;;;;;;25.23;54.06;100077.65;117632;1182;22623;-54
2022/05/30 11:19:40;;;;;;;5.40;3.30;;;;;;;25.53;53.78;100080.92;117272;1183;23532;-54
2022/05/30 11:22:36;;;;;;;5.70;3.00;;;;;;;25.77;53.93;100080.64;117095;1182;22924;-54
2022/05/30 11:25:05;;;;;;;4.50;3.00;;;;;;;26.25;54.05;100080.17;117257;1182;21859;-54
2022/05/30 11:27:40;;;;;;;5.90;3.50;;;;;;;26.66;54.04;100083.91;117020;1183;24264;-54
2022/05/30 11:30:30;;;;;;;6.50;2.80;;;;;;;26.96;53.66;100089.17;117108;1186;21862;-58
2022/05/30 11:33:33;;;;;;;4.60;2.80;;;;;;;27.16;53.20;100102.98;117276;1186;23011;-58
2022/05/30 11:36:34;;;;;;;4.90;2.60;;;;;;;27.04;52.55;100128.64;117327;1185;23464;-54
2022/05/30 11:39:26;;;;;;;6.40;3.10;;;;;;;26.91;52.59;100161.06;117235;1184;23447;-53
2022/05/30 11:42:05;;;;;;;5.90;2.50;;;;;;;27.01;52.75;100171.02;117367;1185;23534;-54
2022/05/30 11:44:42;;;;;;;4.30;2.60;;;;;;;27.12;52.71;100163.81;117095;1187;22701;-56
2022/05/30 11:47:29;;;;;;;4.10;2.40;;;;;;;27.31;52.86;100157.50;117138;1183;23701;-56